createdAt,value
2023-12-08T00:00:09.002Z,93.71
2023-12-08T00:02:36.194Z,93.55
2023-12-08T00:05:04.645Z,93.41
2023-12-08T00:07:31.476Z,93.54
2023-12-08T00:09:59.154Z,93.52
2023-12-08T00:12:25.938Z,93.66
2023-12-08T00:14:52.938Z,93.55
2023-12-08T00:17:21.325Z,93.76
2023-12-08T00:19:48.090Z,93.75
2023-12-08T00:22:14.866Z,93.62
2023-12-08T00:24:41.753Z,93.85
2023-12-08T00:27:08.829Z,93.83
2023-12-08T00:29:35.988Z,93.69
2023-12-08T00:32:03.009Z,93.69
2023-12-08T00:34:29.794Z,93.71
2023-12-08T00:36:57.019Z,93.80
2023-12-08T00:39:23.910Z,93.90
2023-12-08T00:41:50.800Z,93.98
2023-12-08T00:44:17.869Z,94.09
2023-12-08T00:46:44.773Z,94.01
2023-12-08T00:49:11.898Z,94.08
2023-12-08T00:51:39.497Z,94.24
2023-12-08T00:54:06.272Z,94.10
2023-12-08T00:56:33.433Z,94.30
2023-12-08T00:59:00.528Z,94.25
2023-12-08T01:01:27.521Z,94.38
2023-12-08T01:03:54.570Z,94.38
2023-12-08T01:06:21.717Z,94.46
2023-12-08T01:08:48.623Z,94.35
2023-12-08T01:11:15.751Z,94.35
2023-12-08T01:13:42.492Z,94.16
2023-12-08T01:16:09.511Z,94.46
2023-12-08T01:18:36.556Z,94.39
2023-12-08T01:21:04.486Z,94.39
2023-12-08T01:23:31.466Z,94.39
2023-12-08T01:25:58.803Z,94.47
2023-12-08T01:28:25.753Z,94.34
2023-12-08T01:30:52.655Z,94.34
2023-12-08T01:33:28.816Z,94.45
2023-12-08T01:36:37.442Z,94.30
2023-12-08T01:38:47.417Z,94.57
2023-12-08T01:41:17.887Z,94.40
2023-12-08T01:43:45.460Z,94.30
2023-12-08T01:46:20.710Z,94.43
2023-12-08T01:48:48.775Z,94.61
2023-12-08T01:51:17.748Z,94.45
2023-12-08T01:53:46.976Z,94.66
2023-12-08T01:56:15.344Z,94.74
2023-12-08T01:58:42.502Z,94.74
2023-12-08T02:01:11.647Z,94.74
2023-12-08T02:03:41.545Z,94.67
2023-12-08T02:06:11.010Z,94.84
2023-12-08T02:08:38.547Z,94.94
2023-12-08T02:11:05.790Z,94.80
2023-12-08T02:13:33.497Z,95.05
2023-12-08T02:16:33.128Z,94.92
2023-12-08T02:19:00.929Z,95.03
2023-12-08T02:21:28.991Z,94.96
2023-12-08T02:23:56.172Z,95.02
2023-12-08T02:26:22.892Z,95.22
2023-12-08T02:28:49.980Z,95.02
2023-12-08T02:31:20.937Z,95.18
2023-12-08T02:33:52.977Z,95.23
2023-12-08T02:36:21.129Z,95.17
2023-12-08T02:38:49.355Z,95.24
2023-12-08T02:41:16.412Z,95.16
2023-12-08T02:43:43.561Z,95.04
2023-12-08T02:46:10.506Z,95.24
2023-12-08T02:48:37.492Z,94.85
2023-12-08T02:51:05.188Z,95.01
2023-12-08T02:53:32.280Z,95.01
2023-12-08T02:55:59.268Z,95.07
2023-12-08T02:58:26.796Z,95.02
2023-12-08T03:00:53.730Z,95.08
2023-12-08T03:03:20.613Z,94.91
2023-12-08T03:05:47.698Z,94.86
2023-12-08T03:08:14.602Z,94.90
2023-12-08T03:10:41.501Z,94.82
2023-12-08T03:13:08.552Z,94.97
2023-12-08T03:15:35.448Z,94.85
2023-12-08T03:18:02.410Z,94.93
2023-12-08T03:20:29.318Z,94.75
2023-12-08T03:22:56.980Z,94.53
2023-12-08T03:25:23.890Z,94.66
2023-12-08T03:27:51.075Z,94.54
2023-12-08T03:30:18.155Z,94.66
2023-12-08T03:32:45.035Z,94.50
2023-12-08T03:35:12.611Z,94.37
2023-12-08T03:37:39.563Z,94.23
2023-12-08T03:40:07.223Z,94.36
2023-12-08T03:42:38.032Z,94.33
2023-12-08T03:45:06.301Z,94.48
2023-12-08T03:47:33.523Z,94.08
2023-12-08T03:50:00.691Z,93.82
2023-12-08T03:52:28.095Z,94.24
2023-12-08T03:54:55.014Z,93.86
2023-12-08T03:57:22.644Z,93.65
2023-12-08T03:59:49.652Z,93.40
2023-12-08T04:02:16.689Z,93.56
2023-12-08T04:04:43.864Z,93.23
2023-12-08T04:07:10.803Z,93.41
2023-12-08T04:09:37.692Z,93.14
2023-12-08T04:12:05.044Z,93.08
2023-12-08T04:14:32.006Z,93.25
2023-12-08T04:16:59.035Z,93.80
2023-12-08T04:19:26.634Z,93.53
2023-12-08T04:21:53.712Z,93.89
2023-12-08T04:24:20.664Z,94.15
2023-12-08T04:26:48.122Z,94.28
2023-12-08T04:29:15.198Z,94.24
2023-12-08T04:31:42.149Z,94.66
2023-12-08T04:34:09.514Z,94.43
2023-12-08T04:36:36.554Z,94.71
2023-12-08T04:39:03.986Z,94.14
2023-12-08T04:41:31.435Z,94.99
2023-12-08T04:43:58.394Z,95.04
2023-12-08T04:46:26.141Z,94.93
2023-12-08T04:48:53.250Z,95.06
2023-12-08T04:51:20.959Z,94.78
2023-12-08T04:53:47.905Z,95.13
2023-12-08T04:56:14.905Z,94.99
2023-12-08T04:58:41.664Z,95.05
2023-12-08T05:01:13.764Z,95.29
2023-12-08T05:03:41.623Z,95.22
2023-12-08T05:06:09.788Z,95.37
2023-12-08T05:08:37.402Z,94.92
2023-12-08T05:11:04.517Z,95.05
2023-12-08T05:13:31.479Z,94.68
2023-12-08T05:15:58.369Z,95.06
2023-12-08T05:18:25.595Z,94.66
2023-12-08T05:20:53.076Z,95.22
2023-12-08T05:23:19.960Z,95.04
2023-12-08T05:25:47.195Z,95.01
2023-12-08T05:28:13.892Z,95.19
2023-12-08T05:30:40.793Z,94.55
2023-12-08T05:33:08.092Z,94.99
2023-12-08T05:35:35.117Z,94.81
2023-12-08T05:38:02.064Z,94.81
2023-12-08T05:40:29.508Z,94.75
2023-12-08T05:42:56.449Z,94.74
2023-12-08T05:45:23.389Z,94.70
2023-12-08T05:47:50.604Z,94.02
2023-12-08T05:50:18.492Z,94.45
2023-12-08T05:52:45.395Z,94.06
2023-12-08T05:55:12.324Z,94.34
2023-12-08T05:57:39.408Z,94.09
2023-12-08T06:00:08.063Z,94.19
2023-12-08T06:02:35.044Z,93.80
2023-12-08T06:05:01.951Z,93.92
2023-12-08T06:07:29.250Z,93.83
2023-12-08T06:09:56.998Z,93.21
2023-12-08T06:12:26.322Z,92.72
2023-12-08T06:14:53.384Z,92.68
2023-12-08T06:17:20.528Z,93.67
2023-12-08T06:19:47.539Z,93.91
2023-12-08T06:22:14.724Z,92.88
2023-12-08T06:24:41.974Z,92.59
2023-12-08T06:27:08.887Z,92.31
2023-12-08T06:29:35.687Z,92.67
2023-12-08T06:32:02.899Z,93.28
2023-12-08T06:34:30.419Z,92.22
2023-12-08T06:36:57.472Z,91.90
2023-12-08T06:39:24.649Z,91.11
2023-12-08T06:41:51.629Z,90.60
2023-12-08T06:44:18.706Z,90.85
2023-12-08T06:46:46.008Z,90.71
2023-12-08T06:49:14.622Z,90.58
2023-12-08T06:51:41.627Z,90.22
2023-12-08T06:54:08.798Z,90.01
2023-12-08T06:56:35.985Z,89.81
2023-12-08T06:59:03.289Z,89.56
2023-12-08T07:01:30.401Z,89.59
2023-12-08T07:03:57.365Z,89.62
2023-12-08T07:06:24.381Z,89.24
2023-12-08T07:08:52.010Z,89.05
2023-12-08T07:11:19.035Z,88.86
2023-12-08T07:13:45.985Z,88.51
2023-12-08T07:16:12.819Z,88.33
2023-12-08T07:18:39.919Z,88.25
2023-12-08T07:21:07.242Z,88.44
2023-12-08T07:23:35.320Z,88.46
2023-12-08T07:26:03.745Z,88.55
2023-12-08T07:28:30.699Z,88.62
2023-12-08T07:30:58.163Z,88.58
2023-12-08T07:33:25.424Z,88.40
2023-12-08T07:35:55.109Z,88.69
2023-12-08T07:38:22.130Z,88.89
2023-12-08T07:40:49.145Z,88.67
2023-12-08T07:43:16.116Z,88.78
2023-12-08T07:45:43.264Z,88.52
2023-12-08T07:48:10.583Z,88.90
2023-12-08T07:50:37.717Z,88.75
2023-12-08T07:53:04.948Z,88.70
2023-12-08T07:55:31.884Z,88.28
2023-12-08T07:57:58.803Z,88.62
2023-12-08T08:00:26.585Z,88.58
2023-12-08T08:02:53.468Z,88.68
2023-12-08T08:05:20.601Z,88.51
2023-12-08T08:07:48.365Z,88.44
2023-12-08T08:10:15.052Z,88.64
2023-12-08T08:12:41.746Z,88.79
2023-12-08T08:15:09.266Z,88.86
2023-12-08T08:17:36.254Z,88.71
2023-12-08T08:20:03.390Z,88.92
2023-12-08T08:22:32.996Z,89.32
2023-12-08T08:25:01.518Z,89.39
2023-12-08T08:27:29.414Z,89.69
2023-12-08T08:29:56.727Z,89.79
2023-12-08T08:32:23.739Z,90.12
2023-12-08T08:34:55.253Z,90.38
2023-12-08T08:37:25.084Z,90.64
2023-12-08T08:39:52.261Z,90.71
2023-12-08T08:42:19.226Z,90.61
2023-12-08T08:44:46.363Z,89.81
2023-12-08T08:47:13.656Z,90.05
2023-12-08T08:49:40.919Z,89.85
2023-12-08T08:52:08.431Z,89.65
2023-12-08T08:54:35.397Z,89.84
2023-12-08T08:57:02.527Z,89.77
2023-12-08T08:59:29.596Z,89.93
2023-12-08T09:01:56.545Z,89.91
2023-12-08T09:04:23.793Z,89.65
2023-12-08T09:06:51.650Z,89.90
2023-12-08T09:09:18.900Z,89.87
2023-12-08T09:11:46.015Z,89.86
2023-12-08T09:14:13.252Z,89.69
2023-12-08T09:16:40.738Z,89.67
2023-12-08T09:19:08.460Z,89.31
2023-12-08T09:21:42.548Z,88.98
2023-12-08T09:24:16.341Z,88.95
2023-12-08T09:26:43.515Z,88.90
2023-12-08T09:29:11.018Z,88.91
2023-12-08T09:31:38.116Z,88.79
2023-12-08T09:34:05.678Z,88.63
2023-12-08T09:36:32.864Z,88.56
2023-12-08T09:38:59.820Z,88.41
2023-12-08T09:41:28.884Z,88.60
2023-12-08T09:44:08.152Z,88.70
2023-12-08T09:46:36.436Z,88.75
2023-12-08T09:49:05.328Z,88.66
2023-12-08T09:51:32.373Z,88.23
2023-12-08T09:54:00.466Z,88.02
2023-12-08T09:56:29.780Z,87.86
2023-12-08T09:58:56.805Z,87.93
2023-12-08T10:01:24.000Z,88.08
2023-12-08T10:03:51.501Z,87.79
2023-12-08T10:06:20.601Z,87.67
2023-12-08T10:08:47.615Z,87.61
2023-12-08T10:11:16.273Z,87.56
2023-12-08T10:13:44.240Z,87.62
2023-12-08T10:16:11.934Z,86.91
2023-12-08T10:18:38.879Z,86.80
2023-12-08T10:21:18.188Z,87.00
2023-12-08T10:23:46.328Z,87.03
2023-12-08T10:26:17.629Z,86.84
2023-12-08T10:28:44.530Z,86.60
2023-12-08T10:31:14.228Z,86.67
2023-12-08T10:33:43.154Z,86.56
2023-12-08T10:36:10.622Z,86.78
2023-12-08T10:38:38.038Z,86.62
2023-12-08T10:41:06.945Z,86.35
2023-12-08T10:43:33.894Z,86.34
2023-12-08T10:46:01.941Z,85.89
2023-12-08T10:48:28.960Z,85.28
2023-12-08T10:50:57.044Z,85.38
2023-12-08T10:53:23.850Z,85.84
2023-12-08T10:56:07.828Z,85.56
2023-12-08T10:58:37.464Z,85.62
2023-12-08T11:01:08.746Z,85.23
2023-12-08T11:03:36.852Z,85.14
2023-12-08T11:06:16.614Z,84.75
2023-12-08T11:08:47.278Z,84.99
2023-12-08T11:11:15.344Z,84.60
2023-12-08T11:13:47.170Z,85.10
2023-12-08T11:16:56.721Z,84.87
2023-12-08T11:19:25.015Z,84.51
2023-12-08T11:21:54.079Z,84.23
2023-12-08T11:24:23.084Z,84.09
2023-12-08T11:27:08.592Z,84.30
2023-12-08T11:29:49.249Z,84.25
2023-12-08T11:32:40.414Z,84.08
2023-12-08T11:35:13.707Z,84.17
2023-12-08T11:37:44.807Z,83.64
2023-12-08T11:40:13.595Z,83.60
2023-12-08T11:42:43.466Z,83.06
2023-12-08T11:45:12.226Z,83.39
2023-12-08T11:47:39.449Z,83.66
2023-12-08T11:50:08.597Z,83.52
2023-12-08T11:52:40.085Z,82.93
2023-12-08T11:55:15.146Z,83.14
2023-12-08T11:57:55.850Z,82.89
2023-12-08T12:00:24.527Z,83.22
2023-12-08T12:02:52.527Z,82.63
2023-12-08T12:05:20.355Z,82.48
2023-12-08T12:07:51.267Z,82.73
2023-12-08T12:10:22.955Z,82.76
2023-12-08T12:12:54.862Z,82.57
2023-12-08T12:15:24.909Z,82.60
2023-12-08T12:17:55.577Z,82.64
2023-12-08T12:20:22.554Z,82.26
2023-12-08T12:22:49.734Z,82.16
2023-12-08T12:25:16.749Z,81.74
2023-12-08T12:27:47.532Z,81.97
2023-12-08T12:30:15.932Z,81.56
2023-12-08T12:32:42.998Z,81.10
2023-12-08T12:35:10.183Z,81.32
2023-12-08T12:37:37.120Z,81.49
2023-12-08T12:40:09.039Z,81.19
2023-12-08T12:42:47.372Z,81.36
2023-12-08T12:45:29.860Z,81.58
2023-12-08T12:48:10.907Z,81.97
2023-12-08T12:50:56.147Z,82.10
2023-12-08T12:53:24.198Z,81.65
2023-12-08T12:55:51.303Z,82.21
2023-12-08T12:58:22.745Z,82.14
2023-12-08T13:00:50.792Z,82.29
2023-12-08T13:03:20.005Z,82.21
2023-12-08T13:05:56.352Z,82.53
2023-12-08T13:08:24.470Z,82.51
2023-12-08T13:10:53.049Z,82.31
2023-12-08T13:13:20.531Z,82.31
2023-12-08T13:15:47.721Z,82.54
2023-12-08T13:18:15.100Z,82.53
2023-12-08T13:20:42.980Z,82.49
2023-12-08T13:23:09.868Z,82.20
2023-12-08T13:25:37.617Z,82.48
2023-12-08T13:28:06.752Z,82.53
2023-12-08T13:30:33.987Z,82.98
2023-12-08T13:33:04.612Z,83.05
2023-12-08T13:35:34.297Z,82.82
2023-12-08T13:38:01.429Z,82.93
2023-12-08T13:40:29.967Z,82.80
2023-12-08T13:42:57.088Z,83.16
2023-12-08T13:45:24.029Z,83.31
2023-12-08T13:47:51.282Z,83.52
2023-12-08T13:50:18.654Z,83.87
2023-12-08T13:52:45.647Z,84.05
2023-12-08T13:55:12.584Z,83.95
2023-12-08T13:57:41.722Z,83.65
2023-12-08T14:00:09.651Z,84.04
2023-12-08T14:02:37.774Z,83.95
2023-12-08T14:05:05.302Z,84.41
2023-12-08T14:07:32.593Z,84.54
2023-12-08T14:09:59.708Z,84.77
2023-12-08T14:12:27.399Z,84.78
2023-12-08T14:14:54.466Z,84.73
2023-12-08T14:17:21.893Z,84.65
2023-12-08T14:19:48.887Z,84.95
2023-12-08T14:22:15.814Z,85.08
2023-12-08T14:24:42.666Z,85.05
2023-12-08T14:27:09.799Z,85.06
2023-12-08T14:29:36.710Z,85.07
2023-12-08T14:32:03.745Z,85.17
2023-12-08T14:34:30.753Z,85.40
2023-12-08T14:36:58.123Z,85.22
2023-12-08T14:39:25.225Z,85.32
2023-12-08T14:41:52.308Z,85.18
2023-12-08T14:44:19.346Z,85.71
2023-12-08T14:46:50.459Z,85.57
2023-12-08T14:49:22.225Z,85.86
2023-12-08T14:51:49.199Z,85.96
2023-12-08T14:54:22.585Z,85.96
2023-12-08T14:56:53.627Z,85.95
2023-12-08T14:59:20.702Z,86.15
2023-12-08T15:01:47.740Z,86.21
2023-12-08T15:04:15.548Z,86.39
2023-12-08T15:06:42.793Z,86.53
2023-12-08T15:09:10.378Z,86.74
2023-12-08T15:11:37.721Z,86.82
2023-12-08T15:14:04.534Z,86.88
2023-12-08T15:16:31.242Z,86.93
2023-12-08T15:18:58.529Z,86.91
2023-12-08T15:21:28.014Z,87.22
2023-12-08T15:23:58.294Z,87.19
2023-12-08T15:26:26.250Z,87.28
2023-12-08T15:28:53.052Z,87.28
2023-12-08T15:31:20.146Z,87.32
2023-12-08T15:33:47.948Z,87.41
2023-12-08T15:36:15.347Z,87.51
2023-12-08T15:38:45.384Z,87.54
2023-12-08T15:41:12.594Z,87.45
2023-12-08T15:43:40.241Z,87.55
2023-12-08T15:46:08.408Z,87.71
2023-12-08T15:48:36.186Z,87.82
2023-12-08T15:51:09.723Z,88.01
2023-12-08T15:53:37.022Z,87.86
2023-12-08T15:56:04.028Z,88.04
2023-12-08T15:58:31.028Z,87.98
2023-12-08T16:00:58.015Z,87.94
2023-12-08T16:03:25.083Z,88.41
2023-12-08T16:05:52.264Z,88.21
2023-12-08T16:08:19.478Z,88.52
2023-12-08T16:10:46.408Z,88.42
2023-12-08T16:13:13.163Z,88.32
2023-12-08T16:15:40.552Z,88.44
2023-12-08T16:18:07.415Z,88.46
2023-12-08T16:20:35.287Z,88.28
2023-12-08T16:23:02.364Z,88.53
2023-12-08T16:25:29.082Z,88.57
2023-12-08T16:27:56.607Z,88.68
2023-12-08T16:30:24.009Z,88.70
2023-12-08T16:32:51.056Z,88.98
2023-12-08T16:35:17.829Z,88.73
2023-12-08T16:37:46.536Z,89.18
2023-12-08T16:40:13.750Z,89.10
2023-12-08T16:42:40.844Z,88.77
2023-12-08T16:45:08.243Z,88.82
2023-12-08T16:47:35.511Z,89.04
2023-12-08T16:50:02.563Z,89.05
2023-12-08T16:52:30.326Z,89.32
2023-12-08T16:54:57.589Z,89.13
2023-12-08T16:57:24.621Z,89.18
2023-12-08T16:59:52.949Z,89.17
2023-12-08T17:02:19.946Z,89.10
2023-12-08T17:04:47.334Z,89.24
2023-12-08T17:07:14.482Z,89.29
2023-12-08T17:09:42.017Z,89.01
2023-12-08T17:12:09.093Z,89.08
2023-12-08T17:14:36.087Z,89.26
2023-12-08T17:17:04.182Z,89.67
2023-12-08T17:19:31.029Z,89.81
2023-12-08T17:21:58.707Z,89.56
2023-12-08T17:24:26.021Z,89.80
2023-12-08T17:26:55.634Z,89.70
2023-12-08T17:29:23.668Z,90.01
2023-12-08T17:31:50.752Z,89.89
2023-12-08T17:34:22.485Z,90.04
2023-12-08T17:36:51.932Z,89.91
2023-12-08T17:39:19.192Z,89.93
2023-12-08T17:41:47.341Z,89.77
2023-12-08T17:44:14.886Z,90.07
2023-12-08T17:46:42.342Z,89.79
2023-12-08T17:49:16.801Z,90.56
2023-12-08T17:51:43.837Z,90.19
2023-12-08T17:54:10.770Z,90.38
2023-12-08T17:56:37.715Z,90.31
2023-12-08T17:59:04.555Z,90.04
2023-12-08T18:01:31.649Z,90.36
2023-12-08T18:03:58.665Z,90.56
2023-12-08T18:06:27.232Z,90.62
2023-12-08T18:08:54.364Z,90.29
2023-12-08T18:11:24.800Z,90.22
2023-12-08T18:13:53.412Z,90.22
2023-12-08T18:16:31.425Z,90.28
2023-12-08T18:18:59.094Z,90.72
2023-12-08T18:21:27.745Z,90.59
2023-12-08T18:23:55.469Z,90.27
2023-12-08T18:26:23.163Z,90.24
2023-12-08T18:31:30.421Z,90.25
2023-12-08T18:33:58.782Z,90.55
2023-12-08T18:36:27.200Z,90.35
2023-12-08T18:38:57.514Z,90.43
2023-12-08T18:41:24.941Z,90.64
2023-12-08T18:43:51.781Z,90.29
2023-12-08T18:46:19.004Z,90.23
2023-12-08T18:48:47.242Z,90.37
2023-12-08T18:51:15.275Z,90.30
2023-12-08T18:53:43.557Z,90.32
2023-12-08T18:56:10.972Z,90.40
2023-12-08T18:58:38.690Z,90.52
2023-12-08T19:01:06.716Z,90.21
2023-12-08T19:03:33.627Z,90.18
2023-12-08T19:06:01.045Z,90.30
2023-12-08T19:08:28.725Z,90.37
2023-12-08T19:10:55.718Z,90.33
2023-12-08T19:13:22.760Z,90.63
2023-12-08T19:15:56.388Z,90.67
2023-12-08T19:18:24.262Z,90.84
2023-12-08T19:20:51.075Z,90.54
2023-12-08T19:23:18.597Z,90.57
2023-12-08T19:25:45.405Z,90.60
2023-12-08T19:28:12.916Z,90.72
2023-12-08T19:30:40.594Z,90.63
2023-12-08T19:33:08.939Z,90.66
2023-12-08T19:35:36.450Z,90.80
2023-12-08T19:38:04.671Z,90.72
2023-12-08T19:40:31.397Z,90.50
2023-12-08T19:42:58.983Z,90.44
2023-12-08T19:45:27.049Z,90.51
2023-12-08T19:47:56.558Z,90.39
2023-12-08T19:50:24.460Z,90.40
2023-12-08T19:52:51.508Z,90.67
2023-12-08T19:55:19.270Z,90.39
2023-12-08T19:57:46.304Z,90.57
2023-12-08T20:00:14.695Z,90.57
2023-12-08T20:02:42.643Z,90.44
2023-12-08T20:05:10.045Z,90.60
2023-12-08T20:07:37.614Z,90.36
2023-12-08T20:10:04.789Z,90.72
2023-12-08T20:12:31.827Z,90.50
2023-12-08T20:14:58.886Z,90.34
2023-12-08T20:17:26.347Z,89.90
2023-12-08T20:19:53.599Z,90.55
2023-12-08T20:22:22.575Z,90.01
2023-12-08T20:24:50.625Z,90.16
2023-12-08T20:27:18.268Z,90.35
2023-12-08T20:29:45.790Z,90.55
2023-12-08T20:32:12.684Z,90.44
2023-12-08T20:34:39.798Z,90.59
2023-12-08T20:37:06.969Z,89.95
2023-12-08T20:39:33.767Z,90.27
2023-12-08T20:42:00.624Z,89.74
2023-12-08T20:44:28.200Z,90.38
2023-12-08T20:46:56.365Z,90.41
2023-12-08T20:49:24.202Z,90.05
2023-12-08T20:51:51.860Z,90.24
2023-12-08T20:54:19.051Z,90.07
2023-12-08T20:56:45.970Z,90.06
2023-12-08T20:59:13.058Z,90.00
2023-12-08T21:01:40.938Z,90.39
2023-12-08T21:04:07.928Z,90.17
2023-12-08T21:06:35.089Z,90.51
2023-12-08T21:09:02.636Z,90.84
2023-12-08T21:11:32.195Z,90.53
2023-12-08T21:14:02.148Z,90.63
2023-12-08T21:16:28.709Z,90.52
2023-12-08T21:18:55.719Z,90.59
2023-12-08T21:21:23.255Z,90.92
2023-12-08T21:23:50.197Z,90.72
2023-12-08T21:26:17.143Z,90.65
2023-12-08T21:28:44.167Z,90.70
2023-12-08T21:31:11.136Z,90.83
2023-12-08T21:33:38.429Z,90.71
2023-12-08T21:36:06.223Z,90.64
2023-12-08T21:38:33.209Z,90.67
2023-12-08T21:41:01.075Z,90.72
2023-12-08T21:43:28.180Z,90.64
2023-12-08T21:45:54.980Z,90.68
2023-12-08T21:48:21.882Z,90.92
2023-12-08T21:50:49.353Z,90.47
2023-12-08T21:53:16.655Z,90.78
2023-12-08T21:55:43.501Z,90.96
2023-12-08T21:58:10.426Z,90.95
2023-12-08T22:00:37.619Z,91.20
2023-12-08T22:03:06.223Z,90.65
2023-12-08T22:05:33.699Z,90.74
2023-12-08T22:08:00.721Z,91.24
2023-12-08T22:10:27.766Z,91.16
2023-12-08T22:12:57.064Z,90.88
2023-12-08T22:15:23.920Z,91.31
2023-12-08T22:17:50.918Z,91.09
2023-12-08T22:20:18.124Z,91.39
2023-12-08T22:22:44.962Z,90.73
2023-12-08T22:25:11.789Z,91.16
2023-12-08T22:27:38.830Z,90.78
2023-12-08T22:30:07.172Z,90.95
2023-12-08T22:32:34.267Z,90.96
2023-12-08T22:35:02.527Z,91.22
2023-12-08T22:37:29.772Z,91.08
2023-12-08T22:39:56.883Z,91.06
2023-12-08T22:51:25.611Z,91.25
2023-12-08T23:09:58.881Z,91.32
2023-12-08T23:12:26.079Z,90.86
2023-12-08T23:15:34.463Z,90.89
2023-12-08T23:18:14.402Z,91.14
2023-12-08T23:20:42.014Z,91.17
2023-12-08T23:23:09.067Z,91.26
2023-12-08T23:25:36.038Z,91.19
2023-12-08T23:28:03.168Z,91.09
2023-12-08T23:30:30.105Z,91.82
2023-12-08T23:32:57.561Z,91.41
2023-12-08T23:35:26.905Z,91.42
2023-12-08T23:37:53.814Z,91.90
2023-12-08T23:40:21.059Z,90.98
2023-12-08T23:42:47.829Z,91.18
2023-12-08T23:45:55.779Z,91.41
2023-12-08T23:49:32.070Z,91.16
2023-12-08T23:52:46.237Z,91.05
2023-12-08T23:55:13.028Z,90.96
2023-12-08T23:57:41.885Z,90.98
